Terminal Aerodrome Forecast
Issued by NWS Pittsburgh, PA

Current Version | Previous Version | Graphics & Text | Print | Product List | Glossary On
Versions: 1 2 3 4 5 6 7 8 9 10 11 12 13 14 15 16 17 18 19 20 21 22 23 24 25 26 27 28 29 30 31 32
000
FTUS41 KPBZ 200257 AAA
TAFPIT
TAF AMD
KPIT 200257Z 2003/2106 20005KT P6SM SKC
     FM200800 00000KT 2SM BR SKC
      TEMPO 2009/2012 3/4SM BR BKN003
     FM201300 00000KT 3SM BR SCT003
     FM201400 VRB03KT P6SM SCT250=

USA.gov is the U.S. government's official web portal to all federal, state and local government web resources and services.